Moville, IA (51039)

5:00 AM CDT on July 29, 2014 (GMT -0500)
SSW Union (KIAKINGS2) Elev 1368 ft | 42.66 °N, 96.06 °W | Change Station

Current weather conditions updated 9 minutes ago

Clear
Clear
55.9 °F
Feels Like 55.9 °F
N
1.0
Wind Variable Wind from NNE
Gusts 2.0 mph

Today is forecast to be Warmer than yesterday.

Today
High -- | Low -- °F
--% Chance of Precip.
Yesterday
High -- | Low -- °F
Precip. -- in
6:13 AM 8:47 PM
Waxing Crescent, 5% visible
Pressure 30.19 in
Visibility 10.0 miles
Clouds Clear
Dew Point 50 °F
Humidity 80%
Rainfall 0.00 in
Snow Depth Not available.
UV 0 out of 12
Pollen 5.60 out of 12
Air Quality Not available.
Flu Activity Not available.
METAR KSUX 290952Z AUTO 28003KT 10SM CLR 12/12 A3020 RMK AO2 SLP222 T01220117

More Conditions Fewer Conditions

Pressure 30.19 in
Visibility 10.0 miles
Clouds Clear
Dew Point 50 °F
Humidity 80%
Rainfall 0.00 in
Snow Depth Not available.
UV 0 out of 12
Pollen 5.60 out of 12
Air Quality Not available.
Flu Activity Not available.
METAR KSUX 290952Z AUTO 28003KT 10SM CLR 12/12 A3020 RMK AO2 SLP222 T01220117

More Conditions Fewer Conditions

10-Day Weather Forecast

Almanac

Astronomy

Jul. 29, 2014 Rise Set
Actual Time 6:13 AM CDT 8:47 PM CDT
Civil Twilight 5:41 AM CDT 9:19 PM CDT
Nautical Twilight 5:00 AM CDT 9:59 PM CDT
Astronomical Twilight 4:15 AM CDT 10:44 PM CDT
Moon 8:55 AM CDT 9:55 PM CDT
Length of Visible Light 15h 38m
Length of Day
14h 33m
Tomorrow will be 2m 7s shorter.
Waxing Crescent, 5% of the Moon is Illuminated
Today
Waxing Crescent
Aug 3
First Quarter
Aug 10
Full
Aug 17
Last Quarter
Aug 25
New

Today's Extremes

State Highs State Lows

Community

WunderPhotos

Upload Photos

1,738,675 photos uploaded!

Nearby

Snow Depth

Station Depth Elevation
No new snow has been reported.

Earthquake Activity

City Distance Mag. Time & Date
No recent earthquake activity has been reported nearby.
Minimum magnitude displayed is 2.5.

Coastal Water Temperatures

Place Temperature
No Stations Reporting

Nearby Weather Stations

Station Location Temp. Dew Point Humidity Wind Precip. Elev Updated Type
SSW Union, Kingsley, IA 55.9 °F 50 °F 80% NNE  at  1.0 mph 0.00 in / hr 1368 ft 4:50 AM CDT Normal
MesoWest SHAGBARK HILLS , Correctionville, IA 55 °F 55 °F 98% NNE  at  0 mph 0.00 in / hr 1399 ft 4:00 AM CDT MADIS
MesoWest SALIX , Salix, IA 54 °F - - North  at  - 0.00 in / hr 1077 ft 3:35 AM CDT MADIS
Northside Jones House, Sioux City, IA 51.0 °F 39 °F 63% NNW  at  0.0 mph 0.00 in / hr 1253 ft 4:59 AM CDT Normal
HADS WEST FORK DITCH AT HORNICK IA, Rodney, IA 55 °F - - North  at  - 0.00 in / hr 1045 ft 4:00 AM CDT MADIS
Down Town, LeMars, IA 53.1 °F 49 °F 86% North  at  0.0 mph 0.00 in / hr 1220 ft 4:54 AM CDT Normal
McCook Lake SD, McCook Lake, SD 56.1 °F 55 °F 97% West  at  0.0 mph 0.00 in / hr 1114 ft 5:00 AM CDT Rapid Fire
NW Le Mars, Le Mars, IA 50.8 °F 122 °F - North  at  0.0 mph 0.00 in / hr 1280 ft 5:00 AM CDT Rapid Fire

Show More Stations Show Fewer Stations